Time;durP1;ratioP1;P1;durP2;ratioP2;P2;SDS_P1;SDS_P2;PMS_P1;PMS_P2;Temp;Humidity;BMP_temperature;BMP_pressure;BME280_temperature;BME280_humidity;BME280_pressure;Samples;Min_cycle;Max_cycle;Signal;HPM_P1;HPM_P2
2022/02/14 00:00:27;;;;;;;8.52;3.00;;;9.40;97.40;;;;;;5055310;28;20139;-86
2022/02/14 00:04:43;;;;;;;4.32;2.28;;;9.40;97.00;;;;;;4875470;29;20041;-87
2022/02/14 00:07:32;;;;;;;5.78;2.53;;;9.50;97.30;;;;;;4821552;29;20137;-86
2022/02/14 00:11:24;;;;;;;5.82;2.88;;;9.60;97.10;;;;;;4790199;29;20053;-86
2022/02/14 00:14:21;;;;;;;9.52;2.35;;;9.50;97.10;;;;;;4875269;29;20052;-86
2022/02/14 00:17:57;;;;;;;6.60;2.53;;;9.50;96.90;;;;;;4929153;29;20046;-86
2022/02/14 00:20:43;;;;;;;7.28;2.50;;;9.50;97.60;;;;;;4895293;29;20745;-86
2022/02/14 00:31:38;;;;;;;6.55;2.60;;;9.50;97.50;;;;;;4948606;28;20051;-86
2022/02/14 00:34:50;;;;;;;7.05;2.00;;;9.60;97.90;;;;;;4931051;29;20048;-86
2022/02/14 00:38:38;;;;;;;9.07;2.53;;;9.60;97.60;;;;;;4916298;29;20134;-87
2022/02/14 00:41:42;;;;;;;9.95;2.40;;;9.70;97.10;;;;;;4875476;29;20052;-87
2022/02/14 00:44:43;;;;;;;7.50;2.25;;;9.70;97.30;;;;;;4911986;28;20042;-86
2022/02/14 00:47:34;;;;;;;7.65;2.45;;;9.80;97.40;;;;;;4948373;28;20581;-88
2022/02/14 00:50:25;;;;;;;5.82;2.30;;;9.70;97.70;;;;;;4982241;28;20076;-88
2022/02/14 00:53:10;;;;;;;6.03;2.30;;;9.70;97.60;;;;;;4996678;28;20519;-87
2022/02/14 00:56:06;;;;;;;7.38;2.92;;;9.70;97.80;;;;;;5014038;28;20103;-87
2022/02/14 00:58:38;;;;;;;6.72;2.35;;;9.70;97.40;;;;;;5018704;28;20049;-87
2022/02/14 01:01:54;;;;;;;8.50;2.28;;;9.90;97.80;;;;;;5032237;28;20418;-86
2022/02/14 01:04:42;;;;;;;6.85;2.65;;;9.70;97.90;;;;;;5023100;28;20036;-86
2022/02/14 01:07:51;;;;;;;5.35;2.45;;;9.70;97.90;;;;;;5057486;28;20119;-86
2022/02/14 01:10:29;;;;;;;7.93;2.42;;;9.70;97.90;;;;;;5050347;28;20552;-86
2022/02/14 01:17:40;;;;;;;7.50;2.47;;;9.60;97.80;;;;;;4971402;28;20050;-86
2022/02/14 01:24:51;;;;;;;9.85;2.70;;;9.60;98.00;;;;;;5006256;28;20113;-86
2022/02/14 01:28:32;;;;;;;5.25;2.00;;;9.50;98.50;;;;;;5059545;28;20069;-86
2022/02/14 01:31:59;;;;;;;6.68;2.40;;;9.40;98.90;;;;;;5068453;28;20118;-87
2022/02/14 01:34:37;;;;;;;6.93;2.50;;;9.40;99.10;;;;;;5064593;28;20047;-85
2022/02/14 01:37:26;;;;;;;8.05;3.25;;;9.40;99.10;;;;;;5050356;28;20528;-86
2022/02/14 01:40:23;;;;;;;5.53;2.20;;;9.40;99.20;;;;;;5048894;28;20754;-86
2022/02/14 01:44:12;;;;;;;6.82;2.42;;;9.40;99.20;;;;;;5066432;28;20063;-86
2022/02/14 02:05:40;;;;;;;5.90;2.38;;;9.40;99.90;;;;;;4839285;29;20130;-86
2022/02/14 02:08:23;;;;;;;7.47;2.67;;;9.40;99.90;;;;;;4825490;29;20110;-86
2022/02/14 02:15:52;;;;;;;7.70;2.73;;;9.50;99.90;;;;;;4830471;29;20045;-86
2022/02/14 02:19:21;;;;;;;8.55;2.90;;;9.50;99.90;;;;;;4855565;29;20133;-87
2022/02/14 02:22:44;;;;;;;6.25;2.65;;;9.60;99.90;;;;;;4848225;29;20134;-87
2022/02/14 02:34:21;;;;;;;4.57;2.33;;;9.60;99.90;;;;;;4985735;28;20052;-87
2022/02/14 02:38:26;;;;;;;9.00;3.03;;;10.20;99.90;;;;;;5007815;28;20046;-86
2022/02/14 02:45:36;;;;;;;3.92;1.80;;;9.60;99.90;;;;;;5019145;28;20081;-86
2022/02/14 02:49:40;;;;;;;8.20;3.20;;;9.60;99.90;;;;;;5055901;28;20098;-86
2022/02/14 02:57:30;;;;;;;7.32;1.98;;;9.50;99.90;;;;;;5076083;28;20034;-87
2022/02/14 03:00:46;;;;;;;8.55;1.83;;;9.40;99.90;;;;;;5058141;28;20044;-86
2022/02/14 03:08:22;;;;;;;6.85;2.60;;;9.40;99.90;;;;;;4981414;28;20042;-86
2022/02/14 03:16:31;;;;;;;7.78;2.40;;;9.30;99.90;;;;;;5030283;28;20047;-86
2022/02/14 03:23:37;;;;;;;5.05;2.20;;;9.30;99.90;;;;;;5039518;28;20109;-87
2022/02/14 03:29:57;;;;;;;6.67;2.27;;;9.30;99.90;;;;;;5031633;28;20102;-87
2022/02/14 03:33:37;;;;;;;6.10;2.08;;;9.30;99.90;;;;;;5029742;28;20287;-89
2022/02/14 03:37:27;;;;;;;7.40;1.67;;;9.30;99.90;;;;;;4934465;29;20059;-85
2022/02/14 03:40:12;;;;;;;7.72;2.08;;;9.40;99.90;;;;;;4938126;28;20075;-86
2022/02/14 03:43:08;;;;;;;6.38;1.95;;;9.40;99.90;;;;;;4967489;28;20034;-86
2022/02/14 03:45:49;;;;;;;6.68;2.17;;;9.40;99.90;;;;;;4980126;28;20042;-86
2022/02/14 03:48:46;;;;;;;4.70;1.92;;;9.40;99.90;;;;;;4989520;28;20065;-87
2022/02/14 03:51:20;;;;;;;10.80;2.13;;;9.40;99.90;;;;;;4976301;28;20130;-86
2022/02/14 03:53:54;;;;;;;7.03;1.83;;;9.40;99.90;;;;;;4995919;28;20046;-86
2022/02/14 03:56:30;;;;;;;7.55;2.10;;;10.00;99.90;;;;;;4993159;28;20057;-86
2022/02/14 03:59:23;;;;;;;9.98;3.17;;;9.40;99.90;;;;;;5055952;28;20056;-85
2022/02/14 04:02:18;;;;;;;7.22;2.78;;;9.30;99.90;;;;;;5050595;28;20048;-86
2022/02/14 04:04:48;;;;;;;5.95;2.15;;;9.30;99.90;;;;;;5044916;28;20215;-86
2022/02/14 04:08:02;;;;;;;7.32;1.85;;;9.40;99.90;;;;;;5059748;28;20037;-86
2022/02/14 04:10:38;;;;;;;7.13;1.92;;;9.30;99.90;;;;;;5037673;28;20036;-86
2022/02/14 04:18:44;;;;;;;12.23;2.25;;;9.40;99.90;;;;;;5032978;28;20043;-86
2022/02/14 04:22:44;;;;;;;4.25;1.35;;;9.40;99.90;;;;;;4954173;28;20082;-86
2022/02/14 04:26:11;;;;;;;5.15;1.90;;;9.40;99.90;;;;;;4952931;28;20074;-87
2022/02/14 04:29:24;;;;;;;5.63;1.58;;;9.30;99.90;;;;;;4951224;29;20078;-86
2022/02/14 04:32:36;;;;;;;6.05;1.98;;;9.40;99.90;;;;;;4953708;28;20419;-86
2022/02/14 04:35:28;;;;;;;6.90;1.48;;;9.40;99.90;;;;;;4973256;28;20044;-86
2022/02/14 04:38:26;;;;;;;11.75;2.40;;;9.50;99.90;;;;;;4964201;28;20050;-86
2022/02/14 04:41:33;;;;;;;10.88;2.38;;;9.50;99.90;;;;;;4987590;28;20038;-86
2022/02/14 04:45:30;;;;;;;4.50;1.60;;;9.50;99.90;;;;;;4962773;28;20050;-88
2022/02/14 04:48:52;;;;;;;8.20;1.67;;;9.50;99.90;;;;;;4934645;29;20492;-87
2022/02/14 04:51:59;;;;;;;6.00;1.33;;;9.50;99.90;;;;;;4922747;29;20051;-88
2022/02/14 04:55:24;;;;;;;7.68;2.05;;;9.50;99.90;;;;;;5024475;28;20065;-88
2022/02/14 04:58:19;;;;;;;6.75;1.70;;;9.70;99.90;;;;;;5008019;28;20049;-86
2022/02/14 05:00:48;;;;;;;9.13;1.70;;;9.60;99.90;;;;;;5038836;28;20053;-85
2022/02/14 05:03:15;;;;;;;6.32;1.67;;;9.70;99.90;;;;;;5014646;28;20052;-85
2022/02/14 05:05:41;;;;;;;8.32;1.88;;;9.80;99.90;;;;;;5046366;28;20076;-87
2022/02/14 05:08:06;;;;;;;5.70;1.40;;;9.80;99.90;;;;;;5032661;28;20084;-86
2022/02/14 05:10:32;;;;;;;5.40;1.92;;;9.80;99.90;;;;;;5054390;28;20048;-87
2022/02/14 05:12:58;;;;;;;7.00;1.80;;;9.80;99.90;;;;;;5040358;28;20044;-86
2022/02/14 05:15:23;;;;;;;3.67;1.50;;;9.80;99.90;;;;;;5053929;28;20095;-86
2022/02/14 05:17:49;;;;;;;3.30;1.20;;;9.90;99.90;;;;;;5050438;28;20116;-86
2022/02/14 05:20:14;;;;;;;6.57;1.73;;;9.80;99.90;;;;;;5055915;28;20084;-86
2022/02/14 05:22:40;;;;;;;4.47;1.50;;;9.80;99.90;;;;;;5036592;28;20072;-86
2022/02/14 05:25:06;;;;;;;5.13;1.38;;;9.90;99.90;;;;;;5035717;28;20051;-88
2022/02/14 05:27:32;;;;;;;4.55;1.52;;;9.90;99.90;;;;;;5072374;28;20124;-88
2022/02/14 05:29:57;;;;;;;5.50;1.50;;;9.90;99.90;;;;;;5048233;28;20518;-86
2022/02/14 05:32:23;;;;;;;12.90;2.92;;;9.80;99.90;;;;;;5039262;28;20049;-86
2022/02/14 05:34:48;;;;;;;6.43;1.80;;;9.80;99.90;;;;;;5052323;28;20065;-86
2022/02/14 05:37:14;;;;;;;8.55;2.65;;;9.80;99.90;;;;;;5054800;28;20103;-87
2022/02/14 05:39:44;;;;;;;6.68;1.80;;;9.80;99.90;;;;;;5037333;28;20860;-86
2022/02/14 05:42:11;;;;;;;8.23;1.73;;;9.80;99.90;;;;;;5039972;28;20079;-87
2022/02/14 05:44:42;;;;;;;5.65;1.95;;;9.80;99.90;;;;;;5040898;28;20119;-86
2022/02/14 05:47:09;;;;;;;7.32;1.55;;;9.80;99.90;;;;;;5032685;28;20504;-85
2022/02/14 05:49:39;;;;;;;5.25;1.73;;;9.80;99.90;;;;;;5055381;28;20104;-86
2022/02/14 05:52:13;;;;;;;4.53;1.83;;;9.80;99.90;;;;;;5066737;28;20044;-86
2022/02/14 05:54:39;;;;;;;5.60;1.95;;;9.80;99.90;;;;;;5032570;28;20054;-87
2022/02/14 05:57:05;;;;;;;7.35;1.65;;;9.80;99.90;;;;;;5036555;28;20177;-86
2022/02/14 05:59:31;;;;;;;3.65;1.27;;;9.80;99.90;;;;;;5031785;28;20127;-84
2022/02/14 06:01:56;;;;;;;5.40;1.23;;;9.90;99.90;;;;;;5031243;28;20033;-85
2022/02/14 06:04:28;;;;;;;6.93;1.42;;;9.90;99.90;;;;;;5031320;28;20090;-86
2022/02/14 06:10:20;;;;;;;6.03;1.30;;;9.90;99.90;;;;;;5063263;28;20048;-83
2022/02/14 06:12:46;;;;;;;2.55;1.17;;;9.90;99.90;;;;;;5062729;28;20047;-84
2022/02/14 06:15:16;;;;;;;5.30;1.63;;;10.00;99.90;;;;;;5033435;28;20059;-86
2022/02/14 06:17:52;;;;;;;4.97;1.23;;;10.00;99.90;;;;;;5060189;28;20779;-84
2022/02/14 06:20:17;;;;;;;4.10;1.33;;;10.00;99.90;;;;;;5033220;28;20395;-84
2022/02/14 06:22:43;;;;;;;7.07;1.65;;;10.00;99.90;;;;;;5068184;28;20040;-83
2022/02/14 06:25:08;;;;;;;9.15;2.08;;;10.00;99.90;;;;;;5031330;28;20400;-84
2022/02/14 06:27:34;;;;;;;4.25;1.50;;;10.00;99.90;;;;;;5054114;28;20068;-84
2022/02/14 06:30:04;;;;;;;5.93;1.73;;;10.10;99.90;;;;;;5037428;28;20108;-85
2022/02/14 06:32:29;;;;;;;6.88;1.48;;;10.00;99.90;;;;;;5030075;28;20069;-84
2022/02/14 06:34:56;;;;;;;4.15;1.80;;;10.10;99.90;;;;;;5065323;28;20071;-84
2022/02/14 06:37:21;;;;;;;4.20;1.25;;;10.00;99.90;;;;;;5046858;28;20526;-85
2022/02/14 06:39:47;;;;;;;7.45;1.30;;;10.10;99.90;;;;;;5048752;28;20064;-84
2022/02/14 06:42:14;;;;;;;5.20;1.13;;;10.20;99.90;;;;;;5041401;28;20036;-85
2022/02/14 06:44:40;;;;;;;3.90;1.10;;;10.10;99.90;;;;;;5067284;28;20124;-84
2022/02/14 06:47:08;;;;;;;3.38;1.10;;;10.00;99.90;;;;;;5053347;28;20141;-86
2022/02/14 06:49:35;;;;;;;4.00;1.35;;;10.10;99.90;;;;;;5036870;28;21326;-87
2022/02/14 06:52:33;;;;;;;7.82;1.60;;;10.20;99.90;;;;;;5028290;28;20047;-86
2022/02/14 06:55:01;;;;;;;5.18;1.05;;;10.00;99.90;;;;;;5037627;28;20557;-85
2022/02/14 06:57:30;;;;;;;3.30;1.10;;;10.60;99.90;;;;;;5024289;28;20052;-86
2022/02/14 07:00:08;;;;;;;2.97;1.35;;;10.30;99.90;;;;;;5058684;28;20040;-85
2022/02/14 07:06:45;;;;;;;7.80;1.42;;;10.30;99.90;;;;;;5071095;28;20051;-84
2022/02/14 07:09:10;;;;;;;4.07;1.08;;;10.20;99.90;;;;;;5065824;28;20040;-84
2022/02/14 07:11:40;;;;;;;3.85;1.40;;;10.20;99.90;;;;;;5046087;28;20035;-81
2022/02/14 07:14:06;;;;;;;4.25;1.02;;;10.20;99.90;;;;;;5040386;28;20499;-84
2022/02/14 07:16:32;;;;;;;7.85;1.27;;;10.20;99.90;;;;;;5035545;28;20052;-84
2022/02/14 07:18:57;;;;;;;8.30;1.60;;;10.30;99.90;;;;;;5038592;28;20129;-82
2022/02/14 07:21:23;;;;;;;4.60;1.27;;;10.20;99.90;;;;;;5033257;28;20036;-83
2022/02/14 07:23:50;;;;;;;3.15;0.93;;;10.20;99.90;;;;;;5047518;28;20106;-83
2022/02/14 07:26:15;;;;;;;2.58;1.10;;;10.20;99.90;;;;;;5054802;28;20089;-83
2022/02/14 07:28:42;;;;;;;3.78;1.40;;;10.20;99.90;;;;;;5029256;28;20045;-84
2022/02/14 07:31:08;;;;;;;3.08;0.98;;;10.20;99.90;;;;;;5035444;28;20047;-82
2022/02/14 07:33:34;;;;;;;3.22;1.17;;;10.20;99.90;;;;;;5038625;28;20036;-83
2022/02/14 07:36:06;;;;;;;3.38;1.08;;;10.20;99.90;;;;;;5041507;28;20043;-85
2022/02/14 07:38:32;;;;;;;2.35;1.13;;;10.10;99.90;;;;;;5039026;28;20054;-86
2022/02/14 07:40:57;;;;;;;3.83;1.50;;;10.80;99.90;;;;;;5020398;28;20462;-83
2022/02/14 07:43:23;;;;;;;4.55;1.10;;;10.10;99.90;;;;;;5038587;28;20147;-84
2022/02/14 07:45:56;;;;;;;2.72;0.80;;;10.20;99.90;;;;;;5008856;28;20560;-84
2022/02/14 07:48:21;;;;;;;17.88;2.55;;;10.10;99.90;;;;;;5050840;28;20135;-86
2022/02/14 07:50:47;;;;;;;3.75;1.20;;;10.10;99.90;;;;;;5025582;28;20162;-85
2022/02/14 07:53:16;;;;;;;4.22;1.02;;;10.00;99.90;;;;;;5020678;28;20036;-84
2022/02/14 07:55:48;;;;;;;3.50;1.42;;;10.10;99.90;;;;;;5023803;28;20039;-84
2022/02/14 07:58:13;;;;;;;7.07;1.38;;;10.10;99.90;;;;;;5053795;28;20249;-84
2022/02/14 08:00:41;;;;;;;3.92;1.40;;;10.10;99.90;;;;;;5051715;28;20044;-84
2022/02/14 08:03:07;;;;;;;3.92;1.15;;;10.10;99.90;;;;;;5038227;28;20076;-84
2022/02/14 08:05:32;;;;;;;8.07;1.10;;;10.10;99.90;;;;;;5020117;28;21618;-85
2022/02/14 08:07:58;;;;;;;3.17;0.80;;;10.10;99.90;;;;;;5024076;28;20040;-83
2022/02/14 08:10:27;;;;;;;5.45;1.88;;;10.10;99.90;;;;;;5020672;28;20102;-84
2022/02/14 08:12:53;;;;;;;2.90;0.90;;;10.00;99.90;;;;;;5054491;28;20041;-84
2022/02/14 08:15:18;;;;;;;5.53;1.58;;;10.00;99.90;;;;;;5036366;28;20037;-83
2022/02/14 08:17:44;;;;;;;4.05;0.93;;;10.00;99.90;;;;;;5035217;28;20325;-83
2022/02/14 08:20:10;;;;;;;3.85;1.15;;;10.00;99.90;;;;;;5019035;28;20043;-83
2022/02/14 08:22:35;;;;;;;2.90;0.90;;;9.90;99.90;;;;;;5021673;28;20059;-83
2022/02/14 08:25:01;;;;;;;6.45;1.20;;;10.00;99.90;;;;;;5022568;28;20044;-85
2022/02/14 08:27:27;;;;;;;4.43;1.33;;;9.90;99.90;;;;;;5004870;28;20036;-84
2022/02/14 08:29:57;;;;;;;5.32;0.98;;;10.00;99.90;;;;;;5041458;28;20093;-84
2022/02/14 08:32:22;;;;;;;2.42;1.15;;;10.00;99.90;;;;;;5053332;28;20033;-84
2022/02/14 08:34:48;;;;;;;9.82;1.17;;;10.00;99.90;;;;;;5038513;28;20047;-83
2022/02/14 08:37:14;;;;;;;6.38;1.50;;;10.00;99.90;;;;;;5047926;28;20492;-84
2022/02/14 08:39:40;;;;;;;6.88;1.50;;;10.00;99.90;;;;;;5039661;28;22535;-85
2022/02/14 08:42:07;;;;;;;3.35;1.02;;;10.00;99.90;;;;;;5019971;28;20063;-84
2022/02/14 08:44:34;;;;;;;5.07;1.85;;;10.00;99.90;;;;;;5023277;28;20093;-85
2022/02/14 08:46:59;;;;;;;3.90;1.55;;;9.90;99.90;;;;;;5017773;28;20037;-84
2022/02/14 08:49:27;;;;;;;3.53;1.20;;;9.90;99.90;;;;;;5035790;28;20044;-84
2022/02/14 08:51:55;;;;;;;4.70;1.75;;;9.80;99.90;;;;;;5049745;28;20041;-84
2022/02/14 08:54:25;;;;;;;3.97;1.33;;;9.80;99.90;;;;;;5021233;28;20052;-85
2022/02/14 08:56:50;;;;;;;3.47;1.50;;;9.80;99.90;;;;;;5034830;28;20049;-84
2022/02/14 08:59:19;;;;;;;2.85;1.33;;;9.70;99.90;;;;;;5020237;28;20117;-84
2022/02/14 09:01:47;;;;;;;3.35;1.73;;;9.70;99.90;;;;;;5033926;28;20040;-84
2022/02/14 09:04:23;;;;;;;3.70;1.50;;;9.60;99.90;;;;;;5017674;28;20129;-84
2022/02/14 09:06:52;;;;;;;10.98;2.00;;;9.60;99.90;;;;;;5035870;28;20041;-85
2022/02/14 09:09:20;;;;;;;3.38;1.30;;;9.50;99.90;;;;;;5021174;28;20051;-85
2022/02/14 09:11:46;;;;;;;4.97;1.10;;;9.40;99.90;;;;;;5049852;28;20040;-84
2022/02/14 09:14:12;;;;;;;3.05;1.20;;;9.30;99.90;;;;;;5020804;28;20036;-84
2022/02/14 09:16:40;;;;;;;5.10;1.92;;;9.30;99.90;;;;;;5018918;28;20036;-84
2022/02/14 09:19:07;;;;;;;4.68;1.92;;;9.30;99.90;;;;;;5020994;28;20039;-84
2022/02/14 09:21:33;;;;;;;2.08;1.30;;;9.10;99.90;;;;;;5037506;28;20036;-84
2022/02/14 09:23:59;;;;;;;4.22;1.70;;;9.10;99.90;;;;;;5021784;28;20047;-85
2022/02/14 09:26:25;;;;;;;7.75;1.20;;;9.10;99.90;;;;;;5021611;28;20045;-85
2022/02/14 09:28:51;;;;;;;4.03;1.63;;;9.00;99.90;;;;;;5068234;28;20032;-85
2022/02/14 09:31:20;;;;;;;3.67;2.13;;;9.00;99.90;;;;;;5040151;28;20036;-84
2022/02/14 09:33:45;;;;;;;3.58;1.80;;;9.00;99.90;;;;;;5042302;28;20059;-84
2022/02/14 09:36:12;;;;;;;2.45;2.25;;;9.00;99.90;;;;;;5025079;28;20530;-84
2022/02/14 09:38:37;;;;;;;3.33;2.15;;;8.90;99.90;;;;;;5025096;28;20047;-84
2022/02/14 09:41:04;;;;;;;7.95;2.63;;;8.90;99.90;;;;;;5025709;28;20419;-84
2022/02/14 09:43:33;;;;;;;5.47;2.75;;;9.00;99.90;;;;;;5041953;28;20051;-84
2022/02/14 09:45:59;;;;;;;3.38;2.70;;;9.00;99.90;;;;;;5060591;28;20037;-84
2022/02/14 09:48:31;;;;;;;3.17;2.45;;;9.00;99.90;;;;;;5025643;28;20040;-84
2022/02/14 09:50:57;;;;;;;2.60;2.40;;;9.10;99.90;;;;;;5036698;28;20037;-84
2022/02/14 09:53:22;;;;;;;2.65;2.15;;;9.10;99.90;;;;;;5045313;28;20028;-83
2022/02/14 09:55:49;;;;;;;4.88;2.25;;;9.20;99.90;;;;;;5028692;28;20082;-84
2022/02/14 09:58:15;;;;;;;4.05;2.00;;;9.70;99.90;;;;;;5041689;28;20045;-83
2022/02/14 10:00:41;;;;;;;1.67;1.40;;;9.30;99.90;;;;;;5044589;28;20420;-84
2022/02/14 10:03:18;;;;;;;3.50;1.60;;;9.40;99.90;;;;;;5045040;28;20033;-83
2022/02/14 10:05:52;;;;;;;2.00;1.58;;;9.40;99.90;;;;;;5018900;28;20048;-84
2022/02/14 10:08:32;;;;;;;1.83;1.33;;;9.40;99.90;;;;;;5019832;28;22166;-84
2022/02/14 10:11:10;;;;;;;5.60;1.95;;;9.40;99.90;;;;;;5025775;28;20119;-84
2022/02/14 10:13:38;;;;;;;2.97;2.05;;;9.50;99.90;;;;;;5039360;28;20740;-83
2022/02/14 10:16:09;;;;;;;2.72;1.50;;;9.40;99.90;;;;;;5028952;28;20043;-84
2022/02/14 10:18:45;;;;;;;2.63;1.60;;;9.50;99.90;;;;;;5038781;28;20045;-85
2022/02/14 10:21:26;;;;;;;3.28;2.15;;;9.50;99.90;;;;;;5024756;28;20032;-83
2022/02/14 10:24:03;;;;;;;6.10;2.20;;;9.50;99.90;;;;;;5023101;28;20037;-84
2022/02/14 10:26:38;;;;;;;4.15;1.90;;;9.60;99.90;;;;;;5041798;28;20037;-85
2022/02/14 10:29:22;;;;;;;2.22;1.38;;;9.60;99.90;;;;;;5037709;28;20071;-84
2022/02/14 10:31:51;;;;;;;2.45;1.50;;;9.70;99.90;;;;;;5041458;28;20036;-84
2022/02/14 10:34:23;;;;;;;4.85;1.83;;;9.80;99.90;;;;;;5037438;28;20068;-84
2022/02/14 10:36:53;;;;;;;3.92;1.65;;;9.90;99.90;;;;;;5038366;28;20055;-84
2022/02/14 10:39:25;;;;;;;2.38;1.20;;;10.00;99.90;;;;;;5039967;28;20059;-84
2022/02/14 10:42:33;;;;;;;4.40;1.45;;;10.20;99.90;;;;;;5039223;28;20047;-85
2022/02/14 10:45:11;;;;;;;3.90;1.23;;;10.20;99.90;;;;;;4942042;28;20078;-84
2022/02/14 10:47:46;;;;;;;2.90;1.60;;;10.10;99.90;;;;;;5014103;28;20139;-83
2022/02/14 10:50:23;;;;;;;4.87;1.83;;;10.10;99.90;;;;;;5038531;28;20039;-85
2022/02/14 10:52:52;;;;;;;4.22;1.27;;;10.00;99.90;;;;;;5038173;28;20295;-84
2022/02/14 10:55:21;;;;;;;2.47;1.15;;;10.00;99.90;;;;;;5070456;28;20051;-84
2022/02/14 10:57:48;;;;;;;4.28;1.00;;;10.00;99.90;;;;;;5037664;28;20048;-84
2022/02/14 11:00:19;;;;;;;3.50;1.17;;;10.10;99.90;;;;;;5037956;28;20389;-84
2022/02/14 11:02:47;;;;;;;4.55;1.35;;;10.10;99.90;;;;;;5052255;28;20141;-84
2022/02/14 11:05:15;;;;;;;5.60;1.33;;;10.10;99.90;;;;;;5020447;28;21325;-84
2022/02/14 11:07:42;;;;;;;4.68;1.35;;;10.00;99.90;;;;;;5070639;28;20097;-85
2022/02/14 11:10:26;;;;;;;2.85;1.77;;;9.90;99.90;;;;;;5051747;28;20083;-85
2022/02/14 11:12:54;;;;;;;5.32;1.67;;;9.90;99.90;;;;;;5037546;28;20444;-85
2022/02/14 11:15:31;;;;;;;4.63;1.77;;;9.80;99.90;;;;;;5020182;28;20136;-84
2022/02/14 11:18:23;;;;;;;2.95;1.85;;;9.90;99.90;;;;;;5036956;28;20040;-84
2022/02/14 11:20:59;;;;;;;2.33;1.63;;;10.00;99.90;;;;;;5037686;28;20043;-84
2022/02/14 11:23:27;;;;;;;3.47;1.67;;;10.00;99.90;;;;;;5069489;28;20052;-83
2022/02/14 11:26:15;;;;;;;3.83;1.70;;;10.00;99.90;;;;;;5024147;28;20044;-89
2022/02/14 11:29:24;;;;;;;5.40;1.88;;;10.10;99.90;;;;;;5029372;28;21770;-85
2022/02/14 11:32:39;;;;;;;4.82;1.70;;;10.10;99.90;;;;;;5043742;28;20074;-85
2022/02/14 11:35:19;;;;;;;2.97;1.70;;;10.10;99.90;;;;;;4956599;28;20070;-86
2022/02/14 11:38:01;;;;;;;4.05;1.70;;;10.20;99.90;;;;;;5043761;28;20074;-86
2022/02/14 11:40:52;;;;;;;4.85;2.08;;;10.00;99.90;;;;;;5032418;28;20492;-85
2022/02/14 11:43:22;;;;;;;4.43;1.80;;;10.00;99.90;;;;;;5056669;28;20048;-86
2022/02/14 11:46:18;;;;;;;3.33;1.80;;;10.00;99.90;;;;;;5028988;28;20686;-85
2022/02/14 11:48:45;;;;;;;4.72;2.00;;;10.00;99.90;;;;;;5029141;28;20048;-85
2022/02/14 11:51:17;;;;;;;3.92;2.03;;;9.90;99.90;;;;;;5062152;28;20033;-84
2022/02/14 11:53:45;;;;;;;4.50;1.88;;;10.10;99.90;;;;;;5065524;28;20851;-86
2022/02/14 11:56:27;;;;;;;5.20;1.98;;;10.10;99.90;;;;;;5043921;28;20033;-86
2022/02/14 11:59:16;;;;;;;4.78;1.73;;;10.20;99.90;;;;;;5044007;28;20769;-85
2022/02/14 12:01:44;;;;;;;4.45;1.05;;;10.60;99.90;;;;;;5042253;28;20037;-85
2022/02/14 12:04:41;;;;;;;3.15;1.67;;;10.20;99.90;;;;;;5026035;28;20051;-84
2022/02/14 12:07:13;;;;;;;4.85;1.65;;;10.30;99.90;;;;;;5043760;28;20094;-84
2022/02/14 12:09:57;;;;;;;4.95;1.60;;;10.30;99.90;;;;;;5041379;28;20037;-84
2022/02/14 12:12:45;;;;;;;3.35;1.50;;;10.30;99.90;;;;;;5023853;28;20044;-85
2022/02/14 12:20:59;;;;;;;4.55;1.05;;;10.30;99.90;;;;;;5039551;28;20086;-85
2022/02/14 12:23:34;;;;;;;3.30;0.95;;;10.20;99.90;;;;;;5044408;28;20100;-85
2022/02/14 12:26:00;;;;;;;5.38;0.80;;;10.40;99.90;;;;;;5041447;28;20045;-87
2022/02/14 12:28:27;;;;;;;3.05;0.50;;;10.40;99.90;;;;;;5041056;28;20044;-85
2022/02/14 12:30:56;;;;;;;3.08;0.70;;;10.40;99.90;;;;;;5046512;28;20116;-85
2022/02/14 12:33:26;;;;;;;2.72;0.60;;;10.40;99.90;;;;;;5029177;28;20041;-85
2022/02/14 12:35:54;;;;;;;4.63;0.57;;;10.30;99.90;;;;;;5027152;28;20044;-83
2022/02/14 12:38:28;;;;;;;2.50;0.50;;;10.30;99.90;;;;;;5030724;28;20087;-82
2022/02/14 12:40:56;;;;;;;4.55;0.70;;;10.30;99.90;;;;;;5043322;28;20491;-84
2022/02/14 12:43:32;;;;;;;1.67;0.40;;;10.20;99.90;;;;;;5027051;28;20059;-83
2022/02/14 12:46:01;;;;;;;2.10;0.50;;;10.30;99.90;;;;;;5045373;28;20118;-82
2022/02/14 12:48:36;;;;;;;3.85;0.40;;;10.20;99.90;;;;;;5055459;28;20040;-86
2022/02/14 12:51:19;;;;;;;3.55;0.75;;;10.20;99.90;;;;;;5030594;28;20048;-84
2022/02/14 12:53:53;;;;;;;4.07;0.30;;;10.40;99.90;;;;;;5029753;28;20131;-84
2022/02/14 12:56:23;;;;;;;2.40;0.50;;;10.30;99.90;;;;;;5042558;28;20495;-83
2022/02/14 12:58:58;;;;;;;4.65;1.60;;;10.20;99.90;;;;;;5043194;28;20132;-85
2022/02/14 13:01:30;;;;;;;3.95;0.38;;;10.20;99.90;;;;;;5062752;28;20045;-83
2022/02/14 13:03:58;;;;;;;4.18;0.45;;;10.10;99.90;;;;;;5043361;28;20040;-83
2022/02/14 13:06:52;;;;;;;2.00;0.30;;;10.10;99.90;;;;;;5060148;28;20036;-83
2022/02/14 13:09:32;;;;;;;2.83;0.40;;;10.10;99.90;;;;;;5022574;28;20040;-84
2022/02/14 13:12:02;;;;;;;2.17;0.40;;;10.10;99.90;;;;;;5015950;28;20033;-82
2022/02/14 13:14:42;;;;;;;3.25;0.20;;;10.00;99.90;;;;;;5055301;28;20064;-80
2022/02/14 13:17:25;;;;;;;2.55;0.57;;;10.00;99.90;;;;;;5058218;28;20050;-82
2022/02/14 13:19:52;;;;;;;3.70;0.50;;;10.00;99.90;;;;;;5022203;28;20037;-83
2022/02/14 13:22:34;;;;;;;3.70;0.40;;;9.90;99.90;;;;;;5052172;28;20048;-83
2022/02/14 13:25:01;;;;;;;5.10;0.47;;;10.00;99.90;;;;;;5054737;28;20399;-82
2022/02/14 13:27:30;;;;;;;2.67;0.40;;;10.00;99.90;;;;;;5040283;28;20048;-83
2022/02/14 13:30:03;;;;;;;4.15;0.57;;;10.00;99.90;;;;;;5049265;28;20036;-82
2022/02/14 13:32:35;;;;;;;4.38;0.43;;;10.00;99.90;;;;;;5023242;28;20064;-80
2022/02/14 13:35:07;;;;;;;5.38;0.70;;;10.00;99.90;;;;;;5046378;28;20083;-80
2022/02/14 13:37:53;;;;;;;5.15;0.50;;;10.00;99.90;;;;;;5047512;28;20075;-82
2022/02/14 13:40:36;;;;;;;4.20;0.63;;;9.90;99.90;;;;;;5058612;28;20101;-81
2022/02/14 13:43:04;;;;;;;3.58;0.63;;;10.00;99.90;;;;;;5027919;28;20087;-82
2022/02/14 13:45:49;;;;;;;4.43;0.43;;;9.90;99.90;;;;;;5040880;28;20510;-82
2022/02/14 13:48:22;;;;;;;8.73;0.82;;;9.90;99.90;;;;;;5032878;28;20044;-82
2022/02/14 13:50:53;;;;;;;4.70;0.60;;;9.90;99.90;;;;;;5044180;28;20037;-80
2022/02/14 13:53:20;;;;;;;3.30;0.30;;;9.90;99.90;;;;;;5055192;28;20068;-81
2022/02/14 13:56:07;;;;;;;2.72;0.47;;;9.90;99.90;;;;;;5030597;28;20750;-81
2022/02/14 13:58:36;;;;;;;3.97;0.70;;;9.90;99.90;;;;;;5038947;28;20037;-81
2022/02/14 14:01:32;;;;;;;3.25;0.32;;;9.80;99.90;;;;;;5058973;28;20036;-82
2022/02/14 14:04:21;;;;;;;5.15;0.40;;;9.80;99.90;;;;;;5034096;28;21368;-82
2022/02/14 14:06:48;;;;;;;2.35;0.30;;;9.70;99.90;;;;;;5025295;28;20135;-82
2022/02/14 14:09:15;;;;;;;5.85;0.70;;;9.70;99.90;;;;;;5044380;28;20052;-81
2022/02/14 14:11:40;;;;;;;1.95;0.52;;;9.70;99.90;;;;;;5043209;28;20043;-81
2022/02/14 14:14:06;;;;;;;7.25;0.40;;;9.70;99.90;;;;;;5026909;28;20397;-83
2022/02/14 14:16:33;;;;;;;5.57;0.55;;;9.70;99.90;;;;;;5043846;28;20033;-82
2022/02/14 14:19:00;;;;;;;5.50;0.45;;;9.70;99.90;;;;;;5032204;28;20033;-80
2022/02/14 14:21:26;;;;;;;3.47;0.50;;;9.70;99.90;;;;;;5045517;28;20029;-80
2022/02/14 14:23:52;;;;;;;3.15;0.45;;;9.80;99.90;;;;;;5024473;28;20048;-80
2022/02/14 14:26:23;;;;;;;3.03;0.63;;;9.80;99.90;;;;;;5034699;28;20055;-81
2022/02/14 14:28:50;;;;;;;7.93;1.02;;;9.70;99.90;;;;;;5042028;28;20029;-81
2022/02/14 14:31:17;;;;;;;2.05;0.40;;;9.80;99.90;;;;;;5062470;28;20110;-81
2022/02/14 14:33:43;;;;;;;4.80;0.52;;;9.80;99.90;;;;;;5046217;28;20064;-81
2022/02/14 14:36:08;;;;;;;4.15;0.60;;;9.90;99.90;;;;;;5028272;28;20036;-81
2022/02/14 14:38:36;;;;;;;9.70;0.85;;;9.80;99.90;;;;;;5046107;28;20040;-81
2022/02/14 14:41:03;;;;;;;3.13;0.60;;;9.90;99.90;;;;;;5032287;28;20033;-81
2022/02/14 14:43:29;;;;;;;6.55;0.70;;;9.90;99.90;;;;;;5030929;28;20144;-81
2022/02/14 14:45:55;;;;;;;5.10;0.40;;;9.90;99.90;;;;;;5059417;28;20457;-81
2022/02/14 14:48:20;;;;;;;2.47;0.30;;;9.80;99.90;;;;;;5030084;28;20029;-81
2022/02/14 14:50:46;;;;;;;4.40;0.40;;;9.90;99.90;;;;;;5042394;28;20043;-81
2022/02/14 14:53:13;;;;;;;5.50;1.20;;;9.90;99.90;;;;;;5044190;28;20033;-81
2022/02/14 14:55:39;;;;;;;5.18;0.55;;;9.90;99.90;;;;;;5049083;28;20037;-82
2022/02/14 14:58:05;;;;;;;3.35;0.30;;;9.90;99.90;;;;;;5049662;28;20734;-81
2022/02/14 15:00:30;;;;;;;3.45;0.50;;;9.90;99.90;;;;;;5028176;28;20139;-82
2022/02/14 15:02:56;;;;;;;1.52;0.43;;;9.90;99.90;;;;;;5049184;28;20045;-82
2022/02/14 15:05:23;;;;;;;4.18;1.10;;;9.80;99.90;;;;;;5042892;28;20045;-81
2022/02/14 15:07:49;;;;;;;2.75;0.60;;;9.80;99.90;;;;;;5030362;28;20043;-81
2022/02/14 15:10:15;;;;;;;4.45;0.50;;;9.90;99.90;;;;;;5044355;28;20040;-82
2022/02/14 15:12:41;;;;;;;6.93;0.63;;;9.90;99.90;;;;;;5042847;28;20044;-82
2022/02/14 15:15:08;;;;;;;3.78;0.60;;;10.00;99.90;;;;;;5046068;28;20399;-81
2022/02/14 15:17:35;;;;;;;7.30;0.55;;;9.90;99.90;;;;;;5061931;28;20097;-81
2022/02/14 15:20:01;;;;;;;7.22;0.68;;;10.00;99.90;;;;;;5026888;28;20032;-82
2022/02/14 15:22:27;;;;;;;2.60;0.47;;;9.90;99.90;;;;;;5044919;28;20045;-82
2022/02/14 15:24:53;;;;;;;4.18;0.50;;;10.00;99.90;;;;;;5029877;28;20048;-82